CYWYPAWG

Guest
Details From CYWY - Wrigley
To PAWG - Wrangell
Flight Number -
Tags Generated
Created
Modified
Stats Distance 486 nm / 900 km
Max Altitude 0 ft / 0 m
Waypoints 4
Social Downloads 1
Likes 0
Share VATSIM

Download

Looking for another format? Having issues loading an existing format? Contact us
Advertisement - Login to hide

Notes

Generated

Route

CYWY XG R0387 PAWG

ID Type Via Altitude Latitude Longitude Leg Dist Tot Dist Heading (true) Name
O CYWY APT - 0 ft / 0 m 63.21261˚ -123.44463˚ - 0 nm - WRIGLEY
XG NDB - 0 ft / 0 m 60.11278˚ -128.79944˚ 240 nm 240 nm 222° / 217° -
R0387 FIX - 0 ft / 0 m 56.48860˚ -132.38250˚ 245 nm 485 nm 209° / 206° -
O PAWG APT - 0 ft / 0 m 56.48860˚ -132.38250˚ 0 nm 485 nm 0° / 180° -

Altitude Profile

Advertisement - Login to hide

Weather


0- 5 10 15 20 25 30 35+ Temperature / ° C

Clouds and Precipitation
Forecast for 2017-12-18 18:00 UTC. Updated an hour ago

Ground ~20,000 ft ~40,000 ft Winds

CYWY

Details ICAO CYWY (YWY)
Name WRIGLEY
Region Canada
Timezone America/Yellowknife (UTC-7.0)
Stats Elevation 489 ft / 149 m (AMSL)
Location 63.209443° -123.436668°
Runways 1
Magnetic Variation 20.040° E

METAR

CYWY 181600Z 34004KT 300V030 15SM -SN BKN040 BKN100 M17/M20 A3000 RMK SC5AC2 SLP177

Decode

TAF

Not found

Departure Runways

ID Width Length Bearing (true) Bearing (mag) Surface Threshold Offset Overrun Length
10 100 ft / 30 m 3,490 ft / 1,064 m 131.40° 111.36° Gravel 500 ft / 152 m 0 ft / 0 m
28 100 ft / 30 m 3,490 ft / 1,064 m 311.41° 291.37° Gravel 0 ft / 0 m 0 ft / 0 m

PAWG

Details ICAO PAWG (WRG)
Name WRANGELL
Region USA (Alaska)
Timezone America/Juneau (UTC-9.0)
Stats Elevation 44 ft / 13 m (AMSL)
Location 56.484324° -132.369832°
Runways 1
Magnetic Variation 18.806° E

METAR

PAWG 181555Z 10010KT 10SM SCT030OVC050 03/01 A2991

Decode

TAF

TAF AMD PAWG 181332Z 1814/1912 08005KT P6SM SCT006 BKN025 OVC040 TEMPO 1814/1816 BKN006 FM181600 08003KT P6SM VCSH SCT020 OVC040 FM190500 06005KT P6SM SCT080 AMD LTD TO CLD VIS AND WIND 1814/1815

Decode

Destination Runways

ID Width Length Bearing (true) Bearing (mag) Surface Threshold Offset Overrun Length
10 150 ft / 46 m 5,983 ft / 1,824 m 121.43° 102.62° Asphalt 0 ft / 0 m 0 ft / 0 m
28 150 ft / 46 m 5,983 ft / 1,824 m 301.45° 282.64° Asphalt 0 ft / 0 m 0 ft / 0 m

Approach Navaids

Runway Type Ident Frequency Range Bearing (true) Bearing (mag) Slope Elevation
10 Localiser IRGL 108.50 MHz 18 nm / 33 km 112.18° 93.37° - 40 ft / 12 m (AMSL)
10 DME IRGL 108.50 MHz 18 nm / 33 km - - - 58 ft / 18 m (AMSL)